createdAt,value
2022-10-31T00:02:14.428Z,95463.06
2022-10-31T00:05:22.611Z,95465.72
2022-10-31T00:08:30.805Z,95463.81
2022-10-31T00:11:39.133Z,95473.31
2022-10-31T00:14:47.425Z,95468.63
2022-10-31T00:17:57.480Z,95470.16
2022-10-31T00:21:06.673Z,95469.78
2022-10-31T00:24:15.313Z,95468.03
2022-10-31T00:27:23.638Z,95462.75
2022-10-31T00:30:33.193Z,95461.19
2022-10-31T00:33:43.760Z,95467.50
2022-10-31T00:36:52.271Z,95465.09
2022-10-31T00:40:00.623Z,95456.47
2022-10-31T00:43:09.009Z,95450.34
2022-10-31T00:46:17.669Z,95452.47
2022-10-31T00:49:27.434Z,95451.16
2022-10-31T00:52:36.004Z,95454.81
2022-10-31T00:55:44.819Z,95453.25
2022-10-31T00:58:53.208Z,95454.97
2022-10-31T01:02:02.879Z,95453.88
2022-10-31T01:05:12.648Z,95451.22
2022-10-31T01:08:20.817Z,95442.91
2022-10-31T01:11:35.225Z,95445.84
2022-10-31T01:14:47.566Z,95439.72
2022-10-31T01:17:55.979Z,95441.91
2022-10-31T01:24:27.546Z,95449.22
2022-10-31T01:27:36.386Z,95448.22
2022-10-31T01:30:44.768Z,95441.25
2022-10-31T01:33:53.825Z,95443.69
2022-10-31T01:37:02.885Z,95449.50
2022-10-31T01:40:13.986Z,95441.84
2022-10-31T01:46:41.838Z,95447.44
2022-10-31T01:49:55.951Z,95444.41
2022-10-31T01:53:07.182Z,95432.44
2022-10-31T01:56:19.843Z,95439.03
2022-10-31T01:59:33.164Z,95434.53
2022-10-31T02:02:44.042Z,95440.69
2022-10-31T02:05:55.397Z,95441.41
2022-10-31T02:09:07.738Z,95438.97
2022-10-31T02:12:19.749Z,95431.59
2022-10-31T02:15:28.854Z,95437.69
2022-10-31T02:18:37.326Z,95425.91
2022-10-31T02:21:56.107Z,95432.56
2022-10-31T02:25:36.612Z,95426.84
2022-10-31T02:29:35.637Z,95433.13
2022-10-31T02:33:17.763Z,95440.00
2022-10-31T02:36:34.662Z,95436.28
2022-10-31T02:39:58.835Z,95448.84
2022-10-31T02:43:29.578Z,95442.34
2022-10-31T02:46:47.055Z,95444.69
2022-10-31T02:50:09.023Z,95448.75
2022-10-31T02:53:18.064Z,95444.75
2022-10-31T02:56:26.530Z,95444.97
2022-10-31T02:59:39.182Z,95438.03
2022-10-31T03:03:05.951Z,95443.16
2022-10-31T03:06:26.231Z,95442.84
2022-10-31T03:09:49.194Z,95442.84
2022-10-31T03:13:11.839Z,95439.19
2022-10-31T03:16:31.212Z,95444.84
2022-10-31T03:19:48.103Z,95439.25
2022-10-31T03:23:01.491Z,95447.53
2022-10-31T03:26:13.437Z,95446.28
2022-10-31T03:29:27.716Z,95441.25
2022-10-31T03:32:44.126Z,95450.25
2022-10-31T03:35:56.802Z,95442.38
2022-10-31T03:39:14.133Z,95451.88
2022-10-31T03:42:26.981Z,95449.38
2022-10-31T03:45:41.430Z,95452.84
2022-10-31T03:48:50.143Z,95449.06
2022-10-31T03:52:05.185Z,95454.00
2022-10-31T03:55:21.452Z,95450.31
2022-10-31T03:58:38.339Z,95453.94
2022-10-31T04:01:54.097Z,95441.34
2022-10-31T04:05:04.596Z,95442.50
2022-10-31T04:08:21.311Z,95445.97
2022-10-31T04:11:37.154Z,95443.84
2022-10-31T04:15:08.687Z,95441.72
2022-10-31T04:18:17.282Z,95441.03
2022-10-31T04:21:30.447Z,95441.03
2022-10-31T04:24:42.498Z,95435.41
2022-10-31T04:27:56.719Z,95442.72
2022-10-31T04:31:05.942Z,95437.59
2022-10-31T04:34:18.428Z,95435.47
2022-10-31T04:37:26.776Z,95443.75
2022-10-31T04:40:35.314Z,95446.72
2022-10-31T04:44:17.453Z,95453.84
2022-10-31T04:47:29.152Z,95453.22
2022-10-31T04:50:37.596Z,95455.06
2022-10-31T04:53:45.909Z,95453.50
2022-10-31T04:57:09.684Z,95457.47
2022-10-31T05:00:24.570Z,95456.72
2022-10-31T05:03:33.179Z,95453.13
2022-10-31T05:06:41.600Z,95459.25
2022-10-31T05:09:50.625Z,95457.78
2022-10-31T05:13:03.922Z,95456.75
2022-10-31T05:16:32.640Z,95452.81
2022-10-31T05:20:03.532Z,95454.09
2022-10-31T05:23:32.269Z,95446.16
2022-10-31T05:26:41.947Z,95452.63
2022-10-31T05:29:51.614Z,95448.50
2022-10-31T05:33:02.782Z,95443.19
2022-10-31T05:36:47.921Z,95443.38
2022-10-31T05:40:08.053Z,95442.53
2022-10-31T05:43:17.505Z,95440.88
2022-10-31T05:46:26.777Z,95443.53
2022-10-31T05:50:12.992Z,95446.16
2022-10-31T05:53:28.746Z,95443.19
2022-10-31T05:56:37.738Z,95436.59
2022-10-31T05:59:49.936Z,95442.88
2022-10-31T06:03:04.192Z,95442.88
2022-10-31T06:06:24.999Z,95444.53
2022-10-31T06:09:34.378Z,95441.88
2022-10-31T06:12:43.190Z,95440.53
2022-10-31T06:16:11.876Z,95445.84
2022-10-31T06:19:21.787Z,95443.50
2022-10-31T06:26:26.768Z,95446.47
2022-10-31T06:29:35.641Z,95448.78
2022-10-31T06:32:50.391Z,95442.97
2022-10-31T06:35:58.942Z,95449.25
2022-10-31T06:39:08.272Z,95445.25
2022-10-31T06:42:19.333Z,95439.13
2022-10-31T06:45:28.526Z,95440.94
2022-10-31T06:48:55.193Z,95439.69
2022-10-31T06:52:24.306Z,95443.13
2022-10-31T06:55:36.362Z,95449.81
2022-10-31T06:58:47.662Z,95453.72
2022-10-31T07:01:59.479Z,95451.41
2022-10-31T07:05:09.058Z,95446.88
2022-10-31T07:08:17.781Z,95449.50
2022-10-31T07:11:29.606Z,95446.28
2022-10-31T07:14:40.839Z,95448.38
2022-10-31T07:17:49.437Z,95446.09
2022-10-31T07:21:01.517Z,95444.72
2022-10-31T07:24:09.912Z,95447.75
2022-10-31T07:27:42.726Z,95447.59
2022-10-31T07:30:56.990Z,95448.94
2022-10-31T07:34:07.150Z,95448.22
2022-10-31T07:37:35.312Z,95448.31
2022-10-31T07:40:45.860Z,95446.06
2022-10-31T07:43:57.046Z,95451.81
2022-10-31T07:47:46.928Z,95448.13
2022-10-31T07:51:14.021Z,95443.81
2022-10-31T07:54:57.714Z,95449.22
2022-10-31T07:58:09.607Z,95438.13
2022-10-31T08:01:21.359Z,95436.19
2022-10-31T08:04:48.348Z,95439.19
2022-10-31T08:08:22.483Z,95429.88
2022-10-31T08:11:30.866Z,95428.75
2022-10-31T08:14:40.454Z,95416.91
2022-10-31T08:17:49.724Z,95415.47
2022-10-31T08:20:59.758Z,95404.84
2022-10-31T08:24:09.383Z,95409.75
2022-10-31T08:27:21.205Z,95404.63
2022-10-31T08:30:32.712Z,95399.03
2022-10-31T08:34:00.097Z,95392.88
2022-10-31T08:37:25.623Z,95402.88
2022-10-31T08:40:41.185Z,95398.94
2022-10-31T08:43:49.688Z,95390.44
2022-10-31T08:46:58.013Z,95383.31
2022-10-31T08:50:10.813Z,95385.69
2022-10-31T08:53:23.603Z,95386.41
2022-10-31T08:56:43.776Z,95383.47
2022-10-31T09:00:08.844Z,95379.66
2022-10-31T09:03:35.841Z,95379.13
2022-10-31T09:07:07.900Z,95373.81
2022-10-31T09:10:15.508Z,95378.47
2022-10-31T09:13:28.125Z,95374.06
2022-10-31T09:16:55.758Z,95367.06
2022-10-31T09:20:13.449Z,95366.34
2022-10-31T09:23:24.390Z,95363.69
2022-10-31T09:26:37.280Z,95358.03
2022-10-31T09:30:11.452Z,95366.25
2022-10-31T09:33:20.763Z,95351.81
2022-10-31T09:36:42.294Z,95345.44
2022-10-31T09:39:56.615Z,95345.13
2022-10-31T09:43:31.360Z,95346.19
2022-10-31T09:47:00.731Z,95343.44
2022-10-31T09:50:22.119Z,95338.16
2022-10-31T09:53:40.933Z,95328.78
2022-10-31T09:56:54.837Z,95339.44
2022-10-31T10:00:07.516Z,95332.28
2022-10-31T10:03:36.388Z,95330.91
2022-10-31T10:07:05.155Z,95328.69
2022-10-31T10:10:40.933Z,95320.09
2022-10-31T10:14:37.402Z,95325.28
2022-10-31T10:18:01.890Z,95314.41
2022-10-31T10:21:28.251Z,95320.94
2022-10-31T10:25:04.099Z,95322.13
2022-10-31T10:28:23.680Z,95315.09
2022-10-31T10:31:42.451Z,95323.25
2022-10-31T10:35:00.120Z,95323.13
2022-10-31T10:38:20.159Z,95315.50
2022-10-31T10:41:35.863Z,95307.59
2022-10-31T10:45:06.951Z,95313.97
2022-10-31T10:48:40.545Z,95305.97
2022-10-31T10:55:40.309Z,95306.81
2022-10-31T10:58:50.021Z,95301.00
2022-10-31T11:02:00.638Z,95289.41
2022-10-31T11:05:24.377Z,95286.31
2022-10-31T11:08:37.716Z,95288.72
2022-10-31T11:11:46.491Z,95273.06
2022-10-31T11:15:00.567Z,95277.75
2022-10-31T11:21:38.511Z,95269.53
2022-10-31T11:24:48.858Z,95257.44
2022-10-31T11:28:05.975Z,95256.69
2022-10-31T11:31:18.009Z,95257.78
2022-10-31T11:34:34.392Z,95264.09
2022-10-31T11:37:46.563Z,95259.81
2022-10-31T11:41:02.062Z,95257.44
2022-10-31T11:44:19.989Z,95258.63
2022-10-31T11:47:33.710Z,95252.47
2022-10-31T11:50:44.537Z,95249.72
2022-10-31T11:54:00.153Z,95247.13
2022-10-31T11:57:30.827Z,95237.03
2022-10-31T12:00:41.959Z,95233.03
2022-10-31T12:04:08.531Z,95234.16
2022-10-31T12:07:17.023Z,95235.03
2022-10-31T12:10:40.362Z,95228.69
2022-10-31T12:14:09.203Z,95227.78
2022-10-31T12:17:25.513Z,95225.22
2022-10-31T12:20:51.741Z,95231.72
2022-10-31T12:24:18.776Z,95222.66
2022-10-31T12:27:46.247Z,95217.97
2022-10-31T12:31:17.876Z,95215.66
2022-10-31T12:35:10.571Z,95209.09
2022-10-31T12:38:39.418Z,95199.88
2022-10-31T12:41:55.338Z,95202.16
2022-10-31T12:45:44.028Z,95199.19
2022-10-31T12:49:30.038Z,95195.25
2022-10-31T12:52:58.668Z,95188.19
2022-10-31T12:56:33.689Z,95182.03
2022-10-31T12:59:49.434Z,95169.47
2022-10-31T13:03:07.334Z,95173.38
2022-10-31T13:06:23.207Z,95162.94
2022-10-31T13:09:44.319Z,95158.19
2022-10-31T13:13:03.855Z,95148.28
2022-10-31T13:16:18.641Z,95151.13
2022-10-31T13:19:34.064Z,95147.03
2022-10-31T13:22:49.324Z,95138.81
2022-10-31T13:26:03.409Z,95147.09
2022-10-31T13:29:26.865Z,95148.63
2022-10-31T13:32:45.389Z,95149.00
2022-10-31T13:36:07.187Z,95138.91
2022-10-31T13:39:34.985Z,95132.34
2022-10-31T13:42:57.585Z,95132.50
2022-10-31T13:46:26.037Z,95134.03
2022-10-31T13:49:42.015Z,95142.03
2022-10-31T13:52:50.458Z,95129.16
2022-10-31T13:56:17.470Z,95124.25
2022-10-31T13:59:29.227Z,95118.56
2022-10-31T14:02:38.954Z,95118.72
2022-10-31T14:05:56.385Z,95116.53
2022-10-31T14:09:05.233Z,95112.03
2022-10-31T14:12:28.732Z,95108.44
2022-10-31T14:15:43.129Z,95112.03
2022-10-31T14:19:02.596Z,95100.59
2022-10-31T14:22:23.059Z,95114.31
2022-10-31T14:25:34.797Z,95107.84
2022-10-31T14:28:44.694Z,95101.84
2022-10-31T14:32:11.762Z,95100.78
2022-10-31T14:35:22.308Z,95097.59
2022-10-31T14:38:49.494Z,95093.75
2022-10-31T14:42:18.192Z,95084.25
2022-10-31T14:45:42.229Z,95081.31
2022-10-31T14:49:14.426Z,95079.78
2022-10-31T14:52:23.578Z,95077.09
2022-10-31T14:55:33.060Z,95068.75
2022-10-31T14:58:46.771Z,95060.56
2022-10-31T15:02:03.544Z,95061.13
2022-10-31T15:05:14.666Z,95064.72
2022-10-31T15:08:36.877Z,95058.44
2022-10-31T15:11:46.401Z,95057.31
2022-10-31T15:14:56.857Z,95056.78
2022-10-31T15:18:08.158Z,95040.94
2022-10-31T15:21:18.451Z,95042.59
2022-10-31T15:24:34.826Z,95045.94
2022-10-31T15:27:43.404Z,95046.88
2022-10-31T15:30:58.022Z,95051.94
2022-10-31T15:34:24.199Z,95048.22
2022-10-31T15:41:29.936Z,95041.28
2022-10-31T15:44:44.563Z,95034.53
2022-10-31T15:47:59.747Z,95033.88
2022-10-31T15:51:09.808Z,95033.63
2022-10-31T15:54:18.299Z,95037.47
2022-10-31T15:57:28.255Z,95034.69
2022-10-31T16:00:40.310Z,95030.47
2022-10-31T16:04:02.767Z,95042.59
2022-10-31T16:07:40.986Z,95041.72
2022-10-31T16:10:50.334Z,95037.22
2022-10-31T16:14:04.044Z,95040.09
2022-10-31T16:17:16.209Z,95037.13
2022-10-31T16:20:32.943Z,95042.00
2022-10-31T16:23:58.407Z,95045.09
2022-10-31T16:27:21.650Z,95041.38
2022-10-31T16:30:45.388Z,95036.06
2022-10-31T16:34:06.069Z,95039.91
2022-10-31T16:37:14.538Z,95050.13
2022-10-31T16:40:24.858Z,95043.69
2022-10-31T16:43:33.979Z,95051.31
2022-10-31T16:46:42.569Z,95055.31
2022-10-31T16:49:54.884Z,95055.72
2022-10-31T16:53:19.237Z,95059.34
2022-10-31T16:56:51.020Z,95056.00
2022-10-31T17:00:00.333Z,95055.25
2022-10-31T17:03:11.237Z,95056.81
2022-10-31T17:06:19.639Z,95064.19
2022-10-31T17:09:28.051Z,95058.91
2022-10-31T17:12:39.020Z,95063.22
2022-10-31T17:15:53.079Z,95068.69
2022-10-31T17:19:01.357Z,95062.16
2022-10-31T17:22:13.371Z,95063.25
2022-10-31T17:25:24.496Z,95065.75
2022-10-31T17:28:39.688Z,95064.72
2022-10-31T17:31:50.304Z,95056.53
2022-10-31T17:34:58.719Z,95061.66
2022-10-31T17:38:07.065Z,95061.28
2022-10-31T17:41:15.506Z,95053.28
2022-10-31T17:44:25.233Z,95055.34
2022-10-31T17:47:34.240Z,95056.16
2022-10-31T17:50:43.004Z,95053.28
2022-10-31T17:53:51.387Z,95059.44
2022-10-31T17:57:04.557Z,95052.88
2022-10-31T18:00:19.434Z,95049.56
2022-10-31T18:03:28.610Z,95052.84
2022-10-31T18:06:46.174Z,95052.44
2022-10-31T18:09:55.505Z,95045.84
2022-10-31T18:13:04.873Z,95045.66
2022-10-31T18:16:19.684Z,95054.47
2022-10-31T18:19:28.090Z,95043.38
2022-10-31T18:22:36.562Z,95048.50
2022-10-31T18:25:44.845Z,95052.38
2022-10-31T18:28:53.340Z,95055.84
2022-10-31T18:32:08.248Z,95051.91
2022-10-31T18:35:17.598Z,95049.88
2022-10-31T18:38:25.956Z,95053.75
2022-10-31T18:41:35.558Z,95047.78
2022-10-31T18:44:44.058Z,95043.28
2022-10-31T18:47:54.157Z,95039.34
2022-10-31T18:54:13.393Z,95034.22
2022-10-31T18:57:21.707Z,95037.66
2022-10-31T19:00:30.350Z,95036.44
2022-10-31T19:03:41.177Z,95037.59
2022-10-31T19:06:49.536Z,95027.53
2022-10-31T19:09:58.281Z,95021.44
2022-10-31T19:13:07.010Z,95032.78
2022-10-31T19:16:18.421Z,95033.97
2022-10-31T19:19:28.294Z,95031.47
2022-10-31T19:22:36.697Z,95034.25
2022-10-31T19:28:58.641Z,95035.66
2022-10-31T19:32:07.558Z,95029.22
2022-10-31T19:35:17.527Z,95037.72
2022-10-31T19:38:26.167Z,95023.03
2022-10-31T19:41:34.549Z,95033.47
2022-10-31T19:44:43.428Z,95029.28
2022-10-31T19:47:51.791Z,95032.69
2022-10-31T19:51:07.483Z,95029.28
2022-10-31T19:54:16.176Z,95027.25
2022-10-31T19:57:48.466Z,95036.72
2022-10-31T20:00:53.847Z,95039.50
2022-10-31T20:04:02.434Z,95032.16
2022-10-31T20:07:12.315Z,95040.94
2022-10-31T20:10:20.921Z,95037.00
2022-10-31T20:13:31.248Z,95031.69
2022-10-31T20:16:40.491Z,95050.16
2022-10-31T20:19:49.117Z,95037.13
2022-10-31T20:23:01.625Z,95032.78
2022-10-31T20:26:16.566Z,95031.34
2022-10-31T20:33:07.661Z,95037.28
2022-10-31T20:36:19.457Z,95034.19
2022-10-31T20:39:29.650Z,95042.03
2022-10-31T20:42:38.381Z,95041.38
2022-10-31T20:45:46.646Z,95043.88
2022-10-31T20:48:55.928Z,95047.59
2022-10-31T20:52:04.378Z,95052.72
2022-10-31T20:55:14.569Z,95055.13
2022-10-31T20:58:23.010Z,95057.38
2022-10-31T21:01:33.526Z,95049.63
2022-10-31T21:04:42.012Z,95055.03
2022-10-31T21:11:09.952Z,95054.72
2022-10-31T21:14:18.187Z,95054.03
2022-10-31T21:17:26.748Z,95059.94
2022-10-31T21:20:35.436Z,95060.00
2022-10-31T21:23:44.720Z,95058.78
2022-10-31T21:26:56.133Z,95055.94
2022-10-31T21:30:05.909Z,95049.81
2022-10-31T21:33:14.364Z,95056.00
2022-10-31T21:36:22.930Z,95049.66
2022-10-31T21:39:31.175Z,95046.00
2022-10-31T21:42:40.851Z,95041.53
2022-10-31T21:45:49.107Z,95048.06
2022-10-31T21:48:58.244Z,95048.88
2022-10-31T21:52:06.634Z,95042.28
2022-10-31T21:55:15.185Z,95041.56
2022-10-31T21:58:24.884Z,95047.59
2022-10-31T22:01:34.515Z,95039.72
2022-10-31T22:04:44.121Z,95042.13
2022-10-31T22:07:52.457Z,95041.56
2022-10-31T22:11:03.974Z,95040.25
2022-10-31T22:14:16.424Z,95037.09
2022-10-31T22:17:28.836Z,95034.44
2022-10-31T22:20:39.105Z,95029.75
2022-10-31T22:23:52.825Z,95028.41
2022-10-31T22:27:01.468Z,95037.59
2022-10-31T22:30:13.000Z,95031.78
2022-10-31T22:33:21.195Z,95031.56
2022-10-31T22:36:32.045Z,95028.75
2022-10-31T22:39:40.249Z,95025.28
2022-10-31T22:42:48.592Z,95023.00
2022-10-31T22:46:03.560Z,95017.53
2022-10-31T22:49:16.532Z,95017.63
2022-10-31T22:52:24.739Z,95019.06
2022-10-31T22:55:37.527Z,95015.66
2022-10-31T22:58:46.202Z,95022.91
2022-10-31T23:01:56.182Z,95016.97
2022-10-31T23:05:04.848Z,95019.72
2022-10-31T23:08:13.652Z,95022.91
2022-10-31T23:11:25.373Z,95019.03
2022-10-31T23:14:32.885Z,95014.56
2022-10-31T23:17:43.017Z,95014.97
2022-10-31T23:20:53.319Z,95016.88
2022-10-31T23:24:03.030Z,95027.31
2022-10-31T23:27:16.411Z,95017.69
2022-10-31T23:30:25.749Z,95013.72
2022-10-31T23:33:35.949Z,95020.72
2022-10-31T23:36:44.167Z,95024.31
2022-10-31T23:39:52.494Z,95019.72
2022-10-31T23:43:00.791Z,95026.38
2022-10-31T23:46:09.034Z,95018.78
2022-10-31T23:49:18.653Z,95017.19
2022-10-31T23:52:26.876Z,95011.28
2022-10-31T23:55:35.181Z,95016.19
2022-10-31T23:58:43.556Z,95011.31
